createdAt,value
2023-05-09T00:00:57.314Z,5.10
2023-05-09T00:03:43.137Z,4.88
2023-05-09T00:06:28.383Z,5.17
2023-05-09T00:09:13.653Z,4.45
2023-05-09T00:11:59.086Z,5.10
2023-05-09T00:14:45.553Z,4.80
2023-05-09T01:01:50.607Z,4.38
2023-05-09T01:04:35.672Z,4.30
2023-05-09T01:07:21.114Z,4.50
2023-05-09T01:10:06.585Z,4.55
2023-05-09T01:12:58.200Z,4.68
2023-05-09T01:47:23.467Z,4.30
2023-05-09T01:50:09.885Z,3.95
2023-05-09T01:52:56.087Z,3.80
2023-05-09T01:55:42.501Z,3.97
2023-05-09T01:58:28.094Z,4.50
2023-05-09T02:46:51.291Z,3.40
2023-05-09T02:49:36.646Z,4.00
2023-05-09T02:52:23.099Z,3.50
2023-05-09T02:55:09.562Z,3.65
2023-05-09T02:58:09.711Z,3.80
2023-05-09T03:48:22.910Z,3.17
2023-05-09T03:51:10.426Z,3.42
2023-05-09T03:53:58.271Z,3.23
2023-05-09T03:56:43.941Z,3.30
2023-05-09T03:59:29.262Z,3.30
2023-05-09T04:46:34.525Z,3.45
2023-05-09T04:49:21.015Z,3.03
2023-05-09T04:52:07.059Z,3.03
2023-05-09T04:54:52.237Z,2.80
2023-05-09T04:57:40.370Z,2.90
2023-05-09T05:00:25.577Z,3.20
2023-05-09T05:03:10.865Z,2.88
2023-05-09T05:05:56.210Z,3.20
2023-05-09T05:08:42.025Z,2.90
2023-05-09T05:11:27.955Z,2.80
2023-05-09T05:14:13.743Z,2.83
2023-05-09T05:16:59.205Z,3.00
2023-05-09T05:19:44.601Z,2.83
2023-05-09T05:22:32.674Z,2.87
2023-05-09T05:25:18.624Z,2.90
2023-05-09T05:28:05.798Z,2.50
2023-05-09T05:30:51.194Z,2.80
2023-05-09T05:33:36.685Z,3.10
2023-05-09T05:36:22.032Z,2.73
2023-05-09T05:39:07.480Z,2.40
2023-05-09T05:41:53.101Z,2.40
2023-05-09T05:44:38.581Z,3.03
2023-05-09T05:47:24.765Z,2.67
2023-05-09T05:50:11.992Z,2.83
2023-05-09T05:52:58.282Z,2.78
2023-05-09T05:55:45.942Z,2.60
2023-05-09T05:58:31.639Z,2.17
2023-05-09T06:01:17.260Z,2.70
2023-05-09T06:04:02.709Z,2.57
2023-05-09T06:06:50.613Z,2.50
2023-05-09T06:09:35.709Z,2.33
2023-05-09T06:12:21.035Z,2.60
2023-05-09T06:15:06.619Z,2.47
2023-05-09T06:17:55.662Z,2.70
2023-05-09T06:20:40.892Z,2.25
2023-05-09T06:23:25.886Z,2.30
2023-05-09T06:26:12.228Z,2.38
2023-05-09T06:28:57.679Z,2.40
2023-05-09T06:31:42.736Z,2.23
2023-05-09T06:34:28.126Z,2.50
2023-05-09T06:37:13.604Z,2.50
2023-05-09T06:40:00.181Z,2.40
2023-05-09T06:42:45.616Z,2.30
2023-05-09T06:45:31.131Z,2.50
2023-05-09T06:48:16.343Z,2.67
2023-05-09T06:51:01.428Z,2.60
2023-05-09T06:53:46.943Z,2.40
2023-05-09T06:56:32.311Z,2.40
2023-05-09T06:59:17.692Z,2.57
2023-05-09T07:02:02.965Z,2.40
2023-05-09T07:04:48.565Z,2.20
2023-05-09T07:07:33.802Z,2.20
2023-05-09T07:10:18.746Z,2.30
2023-05-09T07:13:04.390Z,2.40
2023-05-09T07:15:49.543Z,2.30
2023-05-09T07:18:35.180Z,2.20
2023-05-09T07:21:20.271Z,2.00
2023-05-09T07:24:06.050Z,2.20
2023-05-09T07:26:51.202Z,2.20
2023-05-09T07:29:36.578Z,2.25
2023-05-09T07:32:22.036Z,2.28
2023-05-09T07:35:07.066Z,2.00
2023-05-09T07:37:52.295Z,2.10
2023-05-09T07:40:38.731Z,2.20
2023-05-09T07:43:24.154Z,2.30
2023-05-09T07:46:09.964Z,2.33
2023-05-09T07:48:55.233Z,1.90
2023-05-09T07:51:41.347Z,2.00
2023-05-09T07:54:26.851Z,2.03
2023-05-09T07:57:12.133Z,2.08
2023-05-09T07:59:57.413Z,1.95
2023-05-09T08:02:42.731Z,2.08
2023-05-09T08:05:27.837Z,1.95
2023-05-09T08:08:12.700Z,1.90
2023-05-09T08:10:57.717Z,2.25
2023-05-09T08:13:43.169Z,1.95
2023-05-09T08:16:28.511Z,2.10
2023-05-09T08:19:13.981Z,2.17
2023-05-09T08:22:00.581Z,1.90
2023-05-09T08:24:46.485Z,2.08
2023-05-09T08:27:31.549Z,2.25
2023-05-09T08:30:17.132Z,1.83
2023-05-09T08:33:02.650Z,2.20
2023-05-09T08:35:51.873Z,1.80
2023-05-09T08:38:39.171Z,2.20
2023-05-09T08:41:28.123Z,2.15
2023-05-09T08:44:13.506Z,1.88
2023-05-09T08:46:59.590Z,2.25
2023-05-09T08:49:45.474Z,2.00
2023-05-09T08:52:33.961Z,2.25
2023-05-09T08:55:19.217Z,2.20
2023-05-09T08:58:04.800Z,2.33
2023-05-09T09:00:50.724Z,2.40
2023-05-09T09:03:37.202Z,2.13
2023-05-09T09:06:23.380Z,1.98
2023-05-09T09:09:09.138Z,2.10
2023-05-09T09:11:55.449Z,2.22
2023-05-09T09:14:45.145Z,2.05
2023-05-09T09:17:31.073Z,2.33
2023-05-09T09:20:18.416Z,2.30
2023-05-09T09:23:04.770Z,2.20
2023-05-09T09:25:59.495Z,2.20
2023-05-09T09:28:45.283Z,2.35
2023-05-09T09:31:31.729Z,2.23
2023-05-09T09:34:20.421Z,2.15
2023-05-09T09:37:06.490Z,2.10
2023-05-09T09:39:55.694Z,2.05
2023-05-09T09:42:42.875Z,2.10
2023-05-09T09:45:28.360Z,2.10
2023-05-09T09:48:13.862Z,2.03
2023-05-09T09:51:04.082Z,2.50
2023-05-09T09:53:49.188Z,1.92
2023-05-09T09:56:40.661Z,2.00
2023-05-09T09:59:26.721Z,2.17
2023-05-09T10:02:12.558Z,2.10
2023-05-09T10:05:06.542Z,2.28
2023-05-09T10:08:02.173Z,2.35
2023-05-09T10:10:47.227Z,2.30
2023-05-09T10:13:34.460Z,2.10
2023-05-09T10:16:28.559Z,1.90
2023-05-09T10:19:22.002Z,2.13
2023-05-09T10:22:10.159Z,1.77
2023-05-09T10:25:01.494Z,1.85
2023-05-09T10:27:47.814Z,2.00
2023-05-09T10:30:35.896Z,2.00
2023-05-09T10:33:24.374Z,1.90
2023-05-09T10:36:10.514Z,2.15
2023-05-09T10:38:56.368Z,2.05
2023-05-09T10:41:41.979Z,2.03
2023-05-09T10:44:27.554Z,1.92
2023-05-09T10:47:13.330Z,2.08
2023-05-09T10:49:58.569Z,1.90
2023-05-09T10:53:03.833Z,2.03
2023-05-09T10:56:00.383Z,2.10
2023-05-09T10:58:48.023Z,2.20
2023-05-09T11:01:38.980Z,2.10
2023-05-09T11:04:24.232Z,1.92
2023-05-09T11:07:23.214Z,2.20
2023-05-09T11:10:11.819Z,2.07
2023-05-09T11:12:58.467Z,2.20
2023-05-09T11:16:02.124Z,2.10
2023-05-09T11:18:52.108Z,2.00
2023-05-09T11:21:37.490Z,1.98
2023-05-09T11:24:22.557Z,1.80
2023-05-09T11:27:24.238Z,2.03
2023-05-09T11:30:11.068Z,1.98
2023-05-09T11:32:58.916Z,2.10
2023-05-09T11:35:44.609Z,2.08
2023-05-09T11:38:40.468Z,1.60
2023-05-09T11:41:27.011Z,1.70
2023-05-09T11:44:21.694Z,1.80
2023-05-09T11:47:07.409Z,2.10
2023-05-09T11:49:53.537Z,1.90
2023-05-09T11:52:39.403Z,2.00
2023-05-09T11:55:25.861Z,1.80
2023-05-09T11:58:11.037Z,2.08
2023-05-09T12:00:57.463Z,1.98
2023-05-09T12:03:46.035Z,2.08
2023-05-09T12:06:32.939Z,1.80
2023-05-09T12:09:19.994Z,2.17
2023-05-09T12:12:08.953Z,1.90
2023-05-09T12:14:54.680Z,1.80
2023-05-09T12:17:40.734Z,1.80
2023-05-09T12:20:26.003Z,1.67
2023-05-09T12:23:12.592Z,2.00
2023-05-09T12:25:58.124Z,1.90
2023-05-09T12:28:43.567Z,1.80
2023-05-09T12:31:29.237Z,1.98
2023-05-09T12:34:14.923Z,2.37
2023-05-09T12:37:03.524Z,1.90
2023-05-09T12:40:00.756Z,1.98
2023-05-09T12:42:46.522Z,1.67
2023-05-09T12:45:32.972Z,1.90
2023-05-09T12:48:18.468Z,1.70
2023-05-09T12:51:04.957Z,1.92
2023-05-09T12:53:50.384Z,2.20
2023-05-09T12:56:35.939Z,1.73
2023-05-09T12:59:22.567Z,1.90
2023-05-09T13:02:07.832Z,1.83
2023-05-09T13:05:12.872Z,1.67
2023-05-09T13:07:58.304Z,1.77
2023-05-09T13:10:43.689Z,1.92
2023-05-09T13:13:29.363Z,2.00
2023-05-09T13:16:16.799Z,1.70
2023-05-09T13:19:05.268Z,1.60
2023-05-09T13:21:50.605Z,1.90
2023-05-09T13:24:35.890Z,1.70
2023-05-09T13:27:21.277Z,1.92
2023-05-09T13:30:09.805Z,1.70
2023-05-09T13:32:54.631Z,1.85
2023-05-09T13:35:40.187Z,2.03
2023-05-09T13:38:26.111Z,2.00
2023-05-09T13:41:12.521Z,1.95
2023-05-09T13:43:57.560Z,2.00
2023-05-09T13:46:43.083Z,2.10
2023-05-09T13:49:28.727Z,2.15
2023-05-09T13:52:15.739Z,1.88
2023-05-09T13:55:01.151Z,1.75
2023-05-09T13:57:46.694Z,1.70
2023-05-09T14:00:31.762Z,1.63
2023-05-09T14:03:17.199Z,1.70
2023-05-09T14:06:02.564Z,1.70
2023-05-09T14:08:47.844Z,1.40
2023-05-09T14:11:33.704Z,1.83
2023-05-09T14:14:19.198Z,1.98
2023-05-09T14:17:04.938Z,1.90
2023-05-09T14:19:49.967Z,1.70
2023-05-09T14:22:35.454Z,1.77
2023-05-09T14:25:22.544Z,1.77
2023-05-09T14:28:09.434Z,1.80
2023-05-09T14:30:55.274Z,1.92
2023-05-09T14:33:40.794Z,1.67
2023-05-09T14:36:26.977Z,1.88
2023-05-09T14:39:12.801Z,1.70
2023-05-09T14:41:57.922Z,2.17
2023-05-09T14:44:43.350Z,2.13
2023-05-09T14:47:28.666Z,1.90
2023-05-09T14:50:15.905Z,1.98
2023-05-09T14:53:02.057Z,1.83
2023-05-09T14:55:47.403Z,1.90
2023-05-09T14:58:34.324Z,1.88
2023-05-09T15:01:19.735Z,2.13
2023-05-09T15:04:05.235Z,1.70
2023-05-09T15:06:50.609Z,1.93
2023-05-09T15:09:35.797Z,2.30
2023-05-09T15:12:21.102Z,2.10
2023-05-09T15:15:23.573Z,2.10
2023-05-09T15:18:13.273Z,2.20
2023-05-09T15:20:58.768Z,2.30
2023-05-09T15:23:44.289Z,2.10
2023-05-09T15:26:30.066Z,2.28
2023-05-09T15:29:15.277Z,2.33
2023-05-09T15:32:00.949Z,2.25
2023-05-09T15:34:46.533Z,2.03
2023-05-09T15:37:33.281Z,2.08
2023-05-09T15:40:19.797Z,2.20
2023-05-09T15:43:08.115Z,2.15
2023-05-09T15:45:55.609Z,2.15
2023-05-09T15:48:41.098Z,2.30
2023-05-09T15:51:26.253Z,2.13
2023-05-09T15:54:11.566Z,2.20
2023-05-09T15:56:56.858Z,1.92
2023-05-09T15:59:42.365Z,2.00
2023-05-09T16:02:28.559Z,2.10
2023-05-09T16:05:14.202Z,2.05
2023-05-09T16:07:59.694Z,2.35
2023-05-09T16:10:48.885Z,1.83
2023-05-09T16:13:35.780Z,1.90
2023-05-09T16:16:21.528Z,2.17
2023-05-09T16:19:06.888Z,2.00
2023-05-09T16:21:52.584Z,2.05
2023-05-09T16:24:37.915Z,1.80
2023-05-09T16:27:23.274Z,2.10
2023-05-09T16:30:09.182Z,2.20
2023-05-09T16:32:54.047Z,1.88
2023-05-09T16:35:40.094Z,2.30
2023-05-09T16:38:25.434Z,1.98
2023-05-09T16:41:10.585Z,1.90
2023-05-09T16:43:56.505Z,1.90
2023-05-09T16:46:42.065Z,2.22
2023-05-09T16:49:27.144Z,2.38
2023-05-09T16:52:12.315Z,2.05
2023-05-09T16:54:59.299Z,2.20
2023-05-09T16:57:44.450Z,1.90
2023-05-09T17:00:29.297Z,2.17
2023-05-09T17:03:14.308Z,2.42
2023-05-09T17:05:59.355Z,2.70
2023-05-09T17:08:45.591Z,2.38
2023-05-09T17:11:30.955Z,2.23
2023-05-09T17:14:16.076Z,2.67
2023-05-09T17:17:00.968Z,2.30
2023-05-09T17:19:46.144Z,2.20
2023-05-09T17:22:31.113Z,2.05
2023-05-09T17:25:16.631Z,2.30
2023-05-09T17:28:01.814Z,2.50
2023-05-09T17:30:47.149Z,2.17
2023-05-09T17:33:32.033Z,2.00
2023-05-09T17:36:17.510Z,2.50
2023-05-09T17:39:02.347Z,2.23
2023-05-09T17:41:47.262Z,2.20
2023-05-09T17:44:32.294Z,2.40
2023-05-09T17:47:17.436Z,2.15
2023-05-09T17:50:02.504Z,2.28
2023-05-09T17:52:49.396Z,1.93
2023-05-09T17:55:34.253Z,1.92
2023-05-09T17:58:20.783Z,1.90
2023-05-09T18:01:06.834Z,2.00
2023-05-09T18:03:52.757Z,2.00
2023-05-09T18:06:38.142Z,2.37
2023-05-09T18:09:23.762Z,2.75
2023-05-09T18:12:09.848Z,2.60
2023-05-09T18:14:55.631Z,2.10
2023-05-09T18:17:40.938Z,2.55
2023-05-09T18:20:26.309Z,2.10
2023-05-09T18:23:11.550Z,2.30
2023-05-09T18:25:56.835Z,2.20
2023-05-09T18:28:41.655Z,2.45
2023-05-09T18:31:26.676Z,2.20
2023-05-09T18:34:12.973Z,2.30
2023-05-09T18:36:57.958Z,2.20
2023-05-09T18:39:43.044Z,2.20
2023-05-09T18:42:28.117Z,2.38
2023-05-09T18:45:13.898Z,2.10
2023-05-09T18:47:58.977Z,2.30
2023-05-09T18:50:44.735Z,2.03
2023-05-09T18:53:30.015Z,1.92
2023-05-09T18:56:14.894Z,1.90
2023-05-09T18:58:59.601Z,2.40
2023-05-09T19:01:44.634Z,2.10
2023-05-09T19:04:29.804Z,2.03
2023-05-09T19:07:15.118Z,2.60
2023-05-09T19:10:01.148Z,3.03
2023-05-09T19:12:46.606Z,2.70
2023-05-09T19:15:31.873Z,2.93
2023-05-09T19:18:16.717Z,3.20
2023-05-09T19:21:01.722Z,3.40
2023-05-09T19:23:49.092Z,2.85
2023-05-09T19:26:34.251Z,3.22
2023-05-09T19:29:18.989Z,3.50
2023-05-09T19:32:04.954Z,3.53
2023-05-09T19:34:50.085Z,3.88
2023-05-09T19:37:36.072Z,4.03
2023-05-09T19:40:21.636Z,4.25
2023-05-09T19:43:06.839Z,4.10
2023-05-09T19:45:51.622Z,4.40
2023-05-09T19:48:37.256Z,4.55
2023-05-09T19:51:22.689Z,4.88
2023-05-09T19:54:07.807Z,5.20
2023-05-09T19:56:53.058Z,4.63
2023-05-09T19:59:38.148Z,4.60
2023-05-09T20:02:23.899Z,5.28
2023-05-09T20:05:09.072Z,4.97
2023-05-09T20:07:54.389Z,4.70
2023-05-09T20:10:39.837Z,5.23
2023-05-09T20:13:24.727Z,5.25
2023-05-09T20:16:10.223Z,5.25
2023-05-09T20:18:55.624Z,5.30
2023-05-09T20:21:41.157Z,5.30
2023-05-09T20:24:26.450Z,5.60
2023-05-09T20:27:12.609Z,5.57
2023-05-09T20:29:57.776Z,5.97
2023-05-09T20:32:43.542Z,5.35
2023-05-09T20:35:28.551Z,5.18
2023-05-09T20:38:14.047Z,5.53
2023-05-09T20:40:59.378Z,5.45
2023-05-09T20:43:44.565Z,5.10
2023-05-09T20:46:30.539Z,5.55
2023-05-09T20:49:16.034Z,5.47
2023-05-09T20:52:00.869Z,5.13
2023-05-09T20:54:47.048Z,4.60
2023-05-09T20:57:32.242Z,5.13
2023-05-09T21:00:17.415Z,4.82
2023-05-09T21:03:02.737Z,6.70
2023-05-09T21:05:47.908Z,4.60
2023-05-09T21:08:33.496Z,4.40
2023-05-09T21:11:18.699Z,3.88
2023-05-09T21:14:03.887Z,4.30
2023-05-09T21:16:49.177Z,4.50
2023-05-09T21:19:34.196Z,4.20
2023-05-09T21:22:19.688Z,4.28
2023-05-09T21:25:04.709Z,4.40
2023-05-09T21:27:50.162Z,4.43
2023-05-09T21:30:35.328Z,3.92
2023-05-09T21:33:20.711Z,3.60
2023-05-09T21:36:06.296Z,3.80
2023-05-09T21:38:51.160Z,3.92
2023-05-09T21:41:37.235Z,3.78
2023-05-09T21:44:22.150Z,3.97
2023-05-09T21:47:07.132Z,4.07
2023-05-09T21:49:52.818Z,4.05
2023-05-09T21:52:37.937Z,3.83
2023-05-09T21:55:23.069Z,3.90
2023-05-09T21:58:08.143Z,3.80
2023-05-09T22:00:53.430Z,3.07
2023-05-09T22:03:38.525Z,3.70
2023-05-09T22:06:23.759Z,4.00
2023-05-09T22:09:09.261Z,3.67
2023-05-09T22:11:54.677Z,3.60
2023-05-09T22:14:52.681Z,3.43
2023-05-09T22:17:40.752Z,3.22
2023-05-09T22:20:26.165Z,3.25
2023-05-09T22:23:11.060Z,3.70
2023-05-09T22:25:55.825Z,3.58
2023-05-09T22:28:41.225Z,3.17
2023-05-09T22:31:26.319Z,3.30
2023-05-09T22:34:11.502Z,3.08
2023-05-09T22:36:56.564Z,3.60
2023-05-09T22:39:41.599Z,3.28
2023-05-09T22:42:26.858Z,3.00
2023-05-09T22:45:11.981Z,3.25
2023-05-09T22:47:57.586Z,3.42
2023-05-09T22:50:42.709Z,3.15
2023-05-09T22:53:28.148Z,3.05
2023-05-09T22:56:13.912Z,3.23
2023-05-09T22:58:58.921Z,2.97
2023-05-09T23:16:52.417Z,3.10
2023-05-09T23:19:37.919Z,3.13
2023-05-09T23:22:22.853Z,3.00
2023-05-09T23:25:08.091Z,2.90
2023-05-09T23:27:54.217Z,2.92
